Fall Rock, KY (40932)

6:17 PM EDT on May 25, 2015 (GMT -0400)
Southern McKee | | Change Station
CLOSE
Current Station
Personal Weather Station
Location: McKee, KY
Elevation: 1138 ft
Nearby Weather Stations

Elev 1138 ft 37.36 °N, 83.94 °W | Updated 44 seconds ago

Mostly Cloudy
Mostly Cloudy
75.9 °F
Feels Like 77 °F
N
0.0
Wind Variable Wind from SSE
Gusts 0.0 mph

Today
High -- | Low -- °F
--% Chance of Precip.
Yesterday
High -- | Low -- °F
Precip. -- in
6:19 AM 8:44 PM
First Quarter, 52% visible
Pressure 30.13 in
Visibility 10.0 miles
Clouds Mostly Cloudy 5000 ft
Heat Index 77 °F
Dew Point 69 °F
Humidity 79%
Rainfall 0.06 in
Snow Depth Not available.
UV 2 out of 12
Pollen 7.20 out of 12
Air Quality Not available.
Flu Activity Sporadic
METAR KLOZ 252153Z AUTO 20010KT 10SM BKN050 28/14 A3016 RMK AO2 RAB14E26 SLP203 P0000 T02830144

More Conditions Fewer Conditions

Pressure 30.13 in
Visibility 10.0 miles
Clouds Mostly Cloudy 5000 ft
Heat Index 77 °F
Dew Point 69 °F
Humidity 79%
Rainfall 0.06 in
Snow Depth Not available.
UV 2 out of 12
Pollen 7.20 out of 12
Air Quality Not available.
Flu Activity Sporadic
METAR KLOZ 252153Z AUTO 20010KT 10SM BKN050 28/14 A3016 RMK AO2 RAB14E26 SLP203 P0000 T02830144

More Conditions Fewer Conditions

10-Day Weather Forecast

Almanac

Astronomy

May. 25, 2015 Rise Set
Actual Time
Civil Twilight
Nautical Twilight
Astronomical Twilight
Moon
Length of Visible Light
Length of Day
Tomorrow will be .
, % of the Moon is Illuminated

Today's Extremes

State Highs State Lows

Community

WunderPhotos

Upload Photos

1,824,149 photos uploaded!

WunderBlogs® & News

Nearby

Air Quality

  Air Quality AQ Index Pollutant
Not available.

Snow Depth

Station Depth Elevation

Earthquake Activity

City Distance Mag. Time & Date
Minimum magnitude displayed is 2.5.

Coastal Water Temperatures

Place Temperature

Stations

Nearby Weather Stations

Station Location Temp. Windchill Dew Point Humidity Wind Precip. Elev Updated Type